createdAt,value
2023-05-13T00:02:08.609Z,82.76
2023-05-13T00:07:10.619Z,82.85
2023-05-13T00:12:11.266Z,82.54
2023-05-13T00:17:11.912Z,82.84
2023-05-13T00:22:13.881Z,82.80
2023-05-13T00:27:14.489Z,82.97
2023-05-13T00:32:15.657Z,83.47
2023-05-13T00:37:17.690Z,83.81
2023-05-13T00:42:18.357Z,84.10
2023-05-13T00:47:19.154Z,83.62
2023-05-13T00:52:21.377Z,83.84
2023-05-13T00:57:22.243Z,83.62
2023-05-13T01:02:28.526Z,83.48
2023-05-13T01:07:39.167Z,84.06
2023-05-13T01:12:42.275Z,83.91
2023-05-13T01:17:48.713Z,83.85
2023-05-13T01:22:51.423Z,83.57
2023-05-13T01:27:53.145Z,83.98
2023-05-13T01:32:54.930Z,83.31
2023-05-13T01:37:58.498Z,83.88
2023-05-13T01:42:59.493Z,84.53
2023-05-13T01:48:00.657Z,84.53
2023-05-13T01:53:12.437Z,83.71
2023-05-13T01:58:13.275Z,84.22
2023-05-13T02:03:14.373Z,83.91
2023-05-13T02:08:16.916Z,84.47
2023-05-13T02:13:17.816Z,84.71
2023-05-13T02:18:18.684Z,84.69
2023-05-13T02:23:20.720Z,84.95
2023-05-13T02:28:21.442Z,85.07
2023-05-13T02:33:22.165Z,85.38
2023-05-13T02:38:24.855Z,85.90
2023-05-13T02:43:27.530Z,86.03
2023-05-13T02:48:33.455Z,85.63
2023-05-13T02:53:36.924Z,85.79
2023-05-13T02:58:39.586Z,85.72
2023-05-13T03:03:40.701Z,85.69
2023-05-13T03:08:42.911Z,85.93
2023-05-13T03:13:43.633Z,86.49
2023-05-13T03:18:44.389Z,86.50
2023-05-13T03:23:46.521Z,86.46
2023-05-13T03:28:47.712Z,86.25
2023-05-13T03:33:49.619Z,85.59
2023-05-13T03:38:51.944Z,84.83
2023-05-13T03:43:52.671Z,85.10
2023-05-13T03:48:53.476Z,84.76
2023-05-13T03:53:55.728Z,84.43
2023-05-13T03:58:58.412Z,84.08
2023-05-13T04:03:59.198Z,84.63
2023-05-13T04:09:01.273Z,83.67
2023-05-13T04:14:01.974Z,83.91
2023-05-13T04:19:02.732Z,83.27
2023-05-13T04:24:05.330Z,82.32
2023-05-13T04:29:05.996Z,82.60
2023-05-13T04:34:06.802Z,82.02
2023-05-13T04:39:10.478Z,81.93
2023-05-13T04:44:11.562Z,81.62
2023-05-13T04:49:12.268Z,80.81
2023-05-13T04:54:15.205Z,79.99
2023-05-13T04:59:16.057Z,80.03
2023-05-13T05:04:16.885Z,79.35
2023-05-13T05:09:20.217Z,78.46
2023-05-13T05:14:23.653Z,78.17
2023-05-13T05:19:25.110Z,77.68
2023-05-13T05:24:29.532Z,76.29
2023-05-13T05:29:30.339Z,75.04
2023-05-13T05:34:31.172Z,74.24
2023-05-13T05:39:35.272Z,73.59
2023-05-13T05:44:36.181Z,73.17
2023-05-13T05:49:37.322Z,72.25
2023-05-13T05:54:40.278Z,71.14
2023-05-13T05:59:41.018Z,70.16
2023-05-13T06:04:42.077Z,70.43
2023-05-13T06:09:44.339Z,69.06
2023-05-13T06:14:45.198Z,68.64
2023-05-13T06:19:46.013Z,68.62
2023-05-13T06:24:48.053Z,67.58
2023-05-13T06:29:48.725Z,66.31
2023-05-13T06:34:52.973Z,65.54
2023-05-13T06:39:56.305Z,65.60
2023-05-13T06:44:57.821Z,63.88
2023-05-13T06:50:03.065Z,64.49
2023-05-13T06:55:06.853Z,64.08
2023-05-13T07:00:08.442Z,63.40
2023-05-13T07:05:11.176Z,62.62
2023-05-13T07:10:13.600Z,61.84
2023-05-13T07:15:14.269Z,60.83
2023-05-13T07:20:15.093Z,59.45
2023-05-13T07:25:17.405Z,58.48
2023-05-13T07:30:18.174Z,58.40
2023-05-13T07:35:18.983Z,57.39
2023-05-13T07:40:22.112Z,56.30
2023-05-13T07:45:23.306Z,55.62
2023-05-13T07:50:24.360Z,55.66
2023-05-13T07:55:26.437Z,54.74
2023-05-13T08:00:27.244Z,53.46
2023-05-13T08:05:28.006Z,53.68
2023-05-13T08:10:30.505Z,52.80
2023-05-13T08:15:31.181Z,50.38
2023-05-13T08:20:31.957Z,51.19
2023-05-13T08:25:34.045Z,50.62
2023-05-13T08:30:34.741Z,49.90
2023-05-13T08:35:35.410Z,46.10
2023-05-13T08:40:37.881Z,45.95
2023-05-13T08:45:40.279Z,47.93
2023-05-13T08:50:47.320Z,46.63
2023-05-13T08:55:51.254Z,46.15
2023-05-13T09:00:54.130Z,46.67
2023-05-13T09:05:54.956Z,47.25
2023-05-13T09:10:57.927Z,46.07
2023-05-13T09:15:58.961Z,43.58
2023-05-13T09:20:59.765Z,43.00
2023-05-13T09:26:01.876Z,42.83
2023-05-13T09:31:02.897Z,42.62
2023-05-13T09:36:05.926Z,41.65
2023-05-13T09:41:08.033Z,40.88
2023-05-13T09:46:10.434Z,41.56
2023-05-13T09:51:12.068Z,41.01
2023-05-13T09:56:14.070Z,41.66
2023-05-13T10:01:14.805Z,42.40
2023-05-13T10:06:17.847Z,42.18
2023-05-13T10:11:20.559Z,41.56
2023-05-13T10:16:21.353Z,41.69
2023-05-13T10:21:22.581Z,40.16
2023-05-13T10:26:25.001Z,40.40
2023-05-13T10:31:26.895Z,39.64
2023-05-13T10:36:43.445Z,38.83
2023-05-13T10:42:37.196Z,39.41
2023-05-13T10:47:38.764Z,38.02
2023-05-13T10:52:44.150Z,38.40
2023-05-13T10:58:05.287Z,40.17
2023-05-13T11:03:29.460Z,41.89
2023-05-13T11:08:40.640Z,43.24
2023-05-13T11:13:42.687Z,44.33
2023-05-13T11:18:43.627Z,44.33
2023-05-13T11:23:56.805Z,42.89
2023-05-13T11:29:06.427Z,42.86
2023-05-13T11:34:10.869Z,43.70
2023-05-13T11:39:14.181Z,44.58
2023-05-13T11:44:17.628Z,41.70
2023-05-13T11:49:34.969Z,39.77
2023-05-13T11:54:46.502Z,39.13
2023-05-13T11:59:58.614Z,36.41
2023-05-13T12:05:01.783Z,37.70
2023-05-13T12:10:04.052Z,35.86
2023-05-13T12:15:10.233Z,35.33
2023-05-13T12:20:13.319Z,37.67
2023-05-13T12:25:40.280Z,36.76
2023-05-13T12:30:43.759Z,36.46
2023-05-13T12:35:45.065Z,35.84
2023-05-13T12:40:46.741Z,37.19
2023-05-13T12:45:54.785Z,40.09
2023-05-13T12:50:56.441Z,40.32
2023-05-13T12:55:57.324Z,39.87
2023-05-13T13:00:59.403Z,39.09
2023-05-13T13:06:00.237Z,39.22
2023-05-13T13:11:01.362Z,38.60
2023-05-13T13:16:03.459Z,39.18
2023-05-13T13:21:05.330Z,41.11
2023-05-13T13:26:06.147Z,41.58
2023-05-13T13:31:08.670Z,41.82
2023-05-13T13:36:09.682Z,40.52
2023-05-13T13:41:10.398Z,41.64
2023-05-13T13:46:13.869Z,41.66
2023-05-13T13:51:15.399Z,41.31
2023-05-13T13:56:16.290Z,40.50
2023-05-13T14:01:19.685Z,41.83
2023-05-13T14:06:20.924Z,42.81
2023-05-13T14:11:24.463Z,42.30
2023-05-13T14:16:26.969Z,44.91
2023-05-13T14:21:27.695Z,46.38
2023-05-13T14:26:28.550Z,48.13
2023-05-13T14:31:30.953Z,45.99
2023-05-13T14:36:32.797Z,48.76
2023-05-13T14:41:33.798Z,48.26
2023-05-13T14:46:38.201Z,47.79
2023-05-13T14:51:38.986Z,48.36
2023-05-13T14:56:41.521Z,47.97
2023-05-13T15:01:43.602Z,46.96
2023-05-13T15:06:46.886Z,46.87
2023-05-13T15:11:47.667Z,45.98
2023-05-13T15:16:49.758Z,46.28
2023-05-13T15:21:50.866Z,45.82
2023-05-13T15:26:51.577Z,47.33
2023-05-13T15:31:54.401Z,50.28
2023-05-13T15:36:55.196Z,51.58
2023-05-13T15:41:56.297Z,51.76
2023-05-13T15:46:58.400Z,52.52
2023-05-13T15:51:59.172Z,50.03
2023-05-13T15:57:00.206Z,50.68
2023-05-13T16:02:03.527Z,51.59
2023-05-13T16:07:07.246Z,55.64
2023-05-13T16:12:08.661Z,54.97
2023-05-13T16:17:10.820Z,55.27
2023-05-13T16:22:38.124Z,55.70
2023-05-13T16:27:40.513Z,55.83
2023-05-13T16:32:42.858Z,55.68
2023-05-13T16:37:43.580Z,57.77
2023-05-13T16:42:44.339Z,60.07
2023-05-13T16:47:46.587Z,61.24
2023-05-13T16:52:47.502Z,62.22
2023-05-13T16:57:48.352Z,63.16
2023-05-13T17:02:50.581Z,62.91
2023-05-13T17:07:51.320Z,63.44
2023-05-13T17:12:53.799Z,63.34
2023-05-13T17:17:57.126Z,62.42
2023-05-13T17:22:58.999Z,63.64
2023-05-13T17:27:59.998Z,64.26
2023-05-13T17:33:02.138Z,64.92
2023-05-13T17:38:02.858Z,64.74
2023-05-13T17:43:04.028Z,64.25
2023-05-13T17:48:08.030Z,64.55
2023-05-13T17:53:09.871Z,63.91
2023-05-13T17:58:10.670Z,63.68
2023-05-13T18:03:12.978Z,63.82
2023-05-13T18:08:13.681Z,64.58
2023-05-13T18:13:14.460Z,65.27
2023-05-13T18:18:17.659Z,65.13
2023-05-13T18:23:18.735Z,65.51
2023-05-13T18:28:19.388Z,65.92
2023-05-13T18:33:21.853Z,65.73
2023-05-13T18:38:22.548Z,65.90
2023-05-13T18:43:23.242Z,64.99
2023-05-13T18:48:25.927Z,64.75
2023-05-13T18:53:26.856Z,65.78
2023-05-13T18:58:28.605Z,65.83
2023-05-13T19:03:30.754Z,66.78
2023-05-13T19:08:31.535Z,67.80
2023-05-13T19:13:43.414Z,67.49
2023-05-13T19:18:48.982Z,68.47
2023-05-13T19:23:50.120Z,69.12
2023-05-13T19:28:50.812Z,68.34
2023-05-13T19:33:53.451Z,68.75
2023-05-13T19:38:54.335Z,68.23
2023-05-13T19:43:55.066Z,68.61
2023-05-13T19:48:57.099Z,68.78
2023-05-13T19:53:58.030Z,68.74
2023-05-13T19:58:58.751Z,68.89
2023-05-13T20:04:01.038Z,69.79
2023-05-13T20:09:02.897Z,69.99
2023-05-13T20:14:04.170Z,69.73
2023-05-13T20:19:06.444Z,71.48
2023-05-13T20:24:08.204Z,71.49
2023-05-13T20:29:09.160Z,72.10
2023-05-13T20:34:11.389Z,72.22
2023-05-13T20:39:12.208Z,72.82
2023-05-13T20:44:15.825Z,72.84
2023-05-13T20:49:18.341Z,72.88
2023-05-13T20:54:19.077Z,72.61
2023-05-13T20:59:19.834Z,72.62
2023-05-13T21:04:21.915Z,73.46
2023-05-13T21:09:22.625Z,72.12
2023-05-13T21:14:23.360Z,72.41
2023-05-13T21:19:26.010Z,72.19
2023-05-13T21:24:26.717Z,72.14
2023-05-13T21:29:27.397Z,72.69
2023-05-13T21:34:29.582Z,72.40
2023-05-13T21:39:30.334Z,72.53
2023-05-13T21:44:31.038Z,71.85
2023-05-13T21:49:33.152Z,72.00
2023-05-13T21:54:33.917Z,71.75
2023-05-13T21:59:34.685Z,71.98
2023-05-13T22:04:36.863Z,71.81
2023-05-13T22:09:37.590Z,71.75
2023-05-13T22:14:38.301Z,71.87
2023-05-13T22:19:40.425Z,72.24
2023-05-13T22:24:41.264Z,72.30
2023-05-13T22:29:41.944Z,71.81
2023-05-13T22:34:44.277Z,72.19
2023-05-13T22:39:44.993Z,72.06
2023-05-13T22:44:45.677Z,72.76
2023-05-13T22:49:47.668Z,72.96
2023-05-13T22:54:48.366Z,72.59
2023-05-13T22:59:49.151Z,73.86
2023-05-13T23:04:51.183Z,74.00
2023-05-13T23:09:52.009Z,74.23
2023-05-13T23:14:52.817Z,73.56
2023-05-13T23:19:54.851Z,74.14
2023-05-13T23:24:55.659Z,75.52
2023-05-13T23:29:56.346Z,76.08
2023-05-13T23:34:58.367Z,75.86
2023-05-13T23:39:59.020Z,75.68
2023-05-13T23:44:59.704Z,76.33
2023-05-13T23:50:02.298Z,75.68
2023-05-13T23:55:03.440Z,76.66
